Terminal Aerodrome Forecast
Issued by NWS

Home | Current Version | Previous Version | Text Only | Print | Product List | Glossary On
Versions: 1 2 3 4 5 6 7 8 9 10 11 12 13 14 15 16
078
FTUS43 KMQT 201141
TAFSAW
TAF
KSAW 201141Z 2012/2112 15007KT P6SM BKN200
     FM201600 17014KT P6SM BKN140
     FM202000 16018G25KT P6SM OVC100
     FM210000 17018G26KT 6SM -SHRA OVC045 WS007/17040KT
     FM210200 17019G26KT 5SM -SHRA OVC025 WS007/17040KT
     FM210300 18018KT 4SM -SHRA BR OVC008 WS007/17040KT
     FM210600 20011KT 3SM -SHRA BR OVC003
     FM211000 26006KT P6SM BKN090=

USA.gov is the U.S. government's official web portal to all federal, state and local government web resources and services.